Urb Lucila Franco, Puerto Rico
Current Conditions -  °F | °C
As of 4:53 PM on Tuesday 25 Nov 2014 (Local Time) from TJNR Reporting Station
Few Clouds Few Clouds  
Wind Chill: 81°   Ceiling: Unl
Heat Index: 85°   Visibility: 10mi
Dew Point: 72°   Wind: 12mph
Humidity: 74%   Direction: 70°ENE
Pressure: 30.02"   Gusts: 24mph
Location:  18.1015°N, 65.4768°W
Report Text: TJNR 252053Z AUTO 07010G21KT 10SM FEW030 27/22 A3002 RMK AO2 SLP167 60021 T02720222 56007 $
Loading
Personal Weather Stations






























Interactive Weather Map New forecast layout! Learn more

10-Day Weather Forecast

Advertisements
Track Severe Weather on mobile